Time;durP1;ratioP1;P1;durP2;ratioP2;P2;SDS_P1;SDS_P2;PMS_P1;PMS_P2;Temp;Humidity;BMP_temperature;BMP_pressure;BME280_temperature;BME280_humidity;BME280_pressure;Samples;Min_cycle;Max_cycle;Signal;HPM_P1;HPM_P2
2022/08/29 00:00:06;;;;;;;11.47;10.27;;;19.70;91.60;;;;;;5076858;28;20208;-56
2022/08/29 00:02:32;;;;;;;15.90;11.17;;;19.70;91.60;;;;;;5094555;28;20232;-56
2022/08/29 00:04:57;;;;;;;11.93;9.33;;;19.70;91.60;;;;;;5076427;28;20216;-57
2022/08/29 00:07:23;;;;;;;20.73;10.00;;;19.70;91.40;;;;;;5061957;28;20193;-57
2022/08/29 00:09:49;;;;;;;12.40;10.33;;;19.70;91.40;;;;;;5061303;28;20203;-58
2022/08/29 00:12:14;;;;;;;15.60;10.93;;;19.70;91.50;;;;;;5059093;28;20209;-58
2022/08/29 00:14:40;;;;;;;13.53;10.37;;;19.70;91.50;;;;;;5060449;28;20189;-58
2022/08/29 00:17:06;;;;;;;13.03;10.87;;;19.70;91.60;;;;;;5074934;28;20192;-57
2022/08/29 00:19:31;;;;;;;13.73;10.87;;;19.70;91.60;;;;;;5076658;28;20181;-57
2022/08/29 00:21:57;;;;;;;15.50;11.03;;;19.80;91.70;;;;;;5078000;28;20192;-59
2022/08/29 00:24:23;;;;;;;17.73;10.70;;;19.70;91.80;;;;;;5060950;28;20192;-59
2022/08/29 00:26:49;;;;;;;11.67;10.43;;;19.80;91.70;;;;;;5056583;28;20251;-59
2022/08/29 00:29:14;;;;;;;12.43;10.43;;;19.80;91.70;;;;;;5059896;28;20217;-59
2022/08/29 00:31:40;;;;;;;13.93;10.60;;;19.80;91.60;;;;;;5066850;28;20276;-59
2022/08/29 00:34:06;;;;;;;13.00;10.27;;;19.80;91.60;;;;;;5078459;28;20189;-59
2022/08/29 00:36:32;;;;;;;13.00;10.10;;;19.60;92.00;;;;;;5090977;28;20214;-59
2022/08/29 00:38:57;;;;;;;10.83;9.80;;;19.50;92.20;;;;;;5078023;28;20279;-59
2022/08/29 00:41:23;;;;;;;10.83;9.30;;;19.50;92.40;;;;;;5094875;28;20195;-59
2022/08/29 00:43:49;;;;;;;10.90;9.80;;;19.50;92.40;;;;;;5062445;28;20220;-57
2022/08/29 00:46:37;;;;;;;11.40;10.20;;;19.50;92.50;;;;;;5059869;28;20244;-57
2022/08/29 00:49:29;;;;;;;11.73;9.63;;;19.50;92.60;;;;;;5086446;28;20196;-57
2022/08/29 00:51:58;;;;;;;15.23;10.17;;;19.50;92.50;;;;;;5077549;28;20231;-57
2022/08/29 00:54:26;;;;;;;15.10;9.73;;;19.50;92.50;;;;;;5087272;28;20192;-57
2022/08/29 00:56:53;;;;;;;10.93;9.83;;;19.50;92.50;;;;;;5093412;28;20194;-57
2022/08/29 00:59:30;;;;;;;12.50;9.73;;;19.50;92.50;;;;;;5093116;28;20181;-57
2022/08/29 01:01:57;;;;;;;10.20;9.13;;;19.50;92.60;;;;;;5092408;28;20200;-57
2022/08/29 01:04:23;;;;;;;13.60;9.43;;;19.50;92.60;;;;;;5092809;28;20193;-57
2022/08/29 01:06:48;;;;;;;10.17;9.07;;;19.50;92.60;;;;;;5055885;28;20200;-58
2022/08/29 01:09:14;;;;;;;13.70;9.30;;;19.50;92.60;;;;;;5057350;28;20185;-58
2022/08/29 01:14:26;;;;;;;11.63;9.03;;;19.60;92.50;;;;;;5101062;28;20192;-58
2022/08/29 01:16:56;;;;;;;10.53;8.67;;;19.50;92.50;;;;;;5079112;28;20205;-58
2022/08/29 01:19:27;;;;;;;10.00;7.57;;;19.50;92.50;;;;;;5091547;28;20192;-58
2022/08/29 01:22:08;;;;;;;9.17;8.17;;;19.50;92.60;;;;;;5096459;28;20192;-58
2022/08/29 01:24:40;;;;;;;10.47;9.47;;;19.50;92.60;;;;;;5096629;28;20322;-58
2022/08/29 01:27:06;;;;;;;9.53;7.73;;;19.50;92.50;;;;;;5084657;28;20289;-58
2022/08/29 01:29:33;;;;;;;12.40;9.20;;;19.50;92.60;;;;;;5030046;28;20185;-58
2022/08/29 01:31:59;;;;;;;9.40;8.10;;;19.50;92.60;;;;;;5058698;28;20374;-58
2022/08/29 01:34:27;;;;;;;10.43;8.10;;;19.50;92.50;;;;;;5075393;28;20196;-58
2022/08/29 01:36:59;;;;;;;12.23;8.73;;;19.50;92.50;;;;;;5097626;28;20265;-57
2022/08/29 01:39:29;;;;;;;10.30;8.37;;;19.50;92.60;;;;;;5109572;28;20192;-57
2022/08/29 01:41:57;;;;;;;8.93;8.03;;;19.50;92.50;;;;;;5077890;28;20326;-57
2022/08/29 01:44:24;;;;;;;9.17;7.77;;;19.40;92.50;;;;;;5076769;28;20197;-57
2022/08/29 01:46:53;;;;;;;13.40;8.00;;;19.40;92.50;;;;;;5077666;28;20182;-57
2022/08/29 01:49:22;;;;;;;8.80;7.90;;;19.40;92.50;;;;;;5076580;28;20219;-57
2022/08/29 01:51:48;;;;;;;11.17;8.07;;;19.40;92.60;;;;;;5074400;28;20217;-56
2022/08/29 01:54:14;;;;;;;12.90;8.33;;;19.40;92.40;;;;;;5060237;28;20189;-56
2022/08/29 01:56:47;;;;;;;9.13;8.07;;;19.40;92.50;;;;;;5065854;28;20195;-56
2022/08/29 01:59:17;;;;;;;9.13;7.07;;;19.40;92.40;;;;;;5048029;28;20182;-57
2022/08/29 02:01:49;;;;;;;9.17;7.63;;;19.40;92.40;;;;;;5072886;28;20190;-57
2022/08/29 02:04:15;;;;;;;8.50;7.60;;;19.40;92.50;;;;;;5084687;28;20197;-57
2022/08/29 02:06:41;;;;;;;10.33;8.03;;;19.40;92.60;;;;;;5071678;28;20193;-56
2022/08/29 02:09:07;;;;;;;10.80;7.43;;;19.40;92.60;;;;;;5055591;28;20205;-56
2022/08/29 02:11:35;;;;;;;8.13;7.30;;;19.40;92.60;;;;;;5044114;28;20217;-57
2022/08/29 02:14:03;;;;;;;8.03;7.20;;;19.40;92.50;;;;;;5064625;28;20194;-57
2022/08/29 02:16:30;;;;;;;9.33;7.30;;;19.40;92.40;;;;;;5082659;28;20186;-57
2022/08/29 02:18:56;;;;;;;11.30;7.33;;;19.40;92.40;;;;;;5068658;28;20256;-57
2022/08/29 02:21:26;;;;;;;13.10;7.53;;;19.40;92.40;;;;;;5060922;28;20276;-58
2022/08/29 02:23:55;;;;;;;8.27;6.23;;;19.40;92.40;;;;;;5072950;28;20250;-57
2022/08/29 02:26:21;;;;;;;8.33;7.30;;;19.40;92.40;;;;;;5075774;28;20316;-57
2022/08/29 02:28:51;;;;;;;8.93;6.60;;;19.30;92.40;;;;;;5091973;28;20197;-57
2022/08/29 02:31:19;;;;;;;9.40;7.03;;;19.40;92.50;;;;;;5057018;28;20223;-58
2022/08/29 02:33:45;;;;;;;8.53;6.67;;;19.40;92.40;;;;;;5059570;28;20186;-58
2022/08/29 02:36:11;;;;;;;7.73;6.93;;;19.30;92.30;;;;;;5054659;28;20210;-58
2022/08/29 02:38:38;;;;;;;11.23;7.20;;;19.40;92.40;;;;;;5048532;28;20270;-58
2022/08/29 02:41:04;;;;;;;8.37;6.27;;;19.30;92.40;;;;;;5058677;28;20280;-58
2022/08/29 02:43:30;;;;;;;7.20;6.50;;;19.30;92.30;;;;;;5072906;28;20247;-58
2022/08/29 02:45:57;;;;;;;6.93;5.97;;;19.30;92.30;;;;;;5062583;28;20185;-58
2022/08/29 02:48:22;;;;;;;7.90;6.27;;;19.30;92.30;;;;;;5058408;28;20185;-58
2022/08/29 02:50:52;;;;;;;7.77;6.60;;;19.30;92.30;;;;;;5058447;28;20281;-58
2022/08/29 02:53:20;;;;;;;10.00;6.97;;;19.30;92.20;;;;;;5074427;28;20189;-58
2022/08/29 02:55:47;;;;;;;8.97;6.47;;;19.30;92.20;;;;;;5075135;28;20190;-58
2022/08/29 02:58:14;;;;;;;8.60;5.87;;;19.30;92.30;;;;;;5055069;28;20192;-58
2022/08/29 03:00:40;;;;;;;8.70;6.07;;;19.30;92.30;;;;;;5041601;28;20197;-58
2022/08/29 03:03:06;;;;;;;6.47;5.87;;;19.30;92.40;;;;;;5041732;28;20328;-58
2022/08/29 03:05:33;;;;;;;6.60;6.00;;;19.30;92.40;;;;;;5058378;28;20192;-58
2022/08/29 03:08:01;;;;;;;10.10;7.17;;;19.30;92.30;;;;;;5091907;28;20196;-57
2022/08/29 03:10:27;;;;;;;8.97;5.90;;;19.30;92.30;;;;;;5074637;28;20215;-56
2022/08/29 03:12:52;;;;;;;6.47;5.73;;;19.30;92.30;;;;;;5073099;28;20202;-57
2022/08/29 03:15:19;;;;;;;7.30;6.20;;;19.30;92.20;;;;;;5058687;28;20204;-57
2022/08/29 03:17:45;;;;;;;6.57;5.87;;;19.30;92.20;;;;;;5058366;28;20182;-58
2022/08/29 03:20:13;;;;;;;6.57;5.83;;;19.30;92.30;;;;;;5074405;28;20193;-58
2022/08/29 03:22:39;;;;;;;7.47;5.97;;;19.30;92.30;;;;;;5057918;28;20247;-59
2022/08/29 03:25:05;;;;;;;9.57;5.70;;;19.20;92.20;;;;;;5056255;28;20198;-59
2022/08/29 03:27:32;;;;;;;10.13;5.53;;;19.30;92.30;;;;;;5070158;28;20232;-59
2022/08/29 03:29:58;;;;;;;8.37;4.63;;;19.20;92.20;;;;;;5093048;28;20257;-59
2022/08/29 03:32:25;;;;;;;8.03;5.23;;;19.20;92.30;;;;;;5094150;28;20214;-58
2022/08/29 03:34:51;;;;;;;6.10;5.50;;;19.20;92.20;;;;;;5094552;28;20183;-58
2022/08/29 03:37:17;;;;;;;6.17;5.37;;;19.20;92.10;;;;;;5073058;28;20192;-57
2022/08/29 03:39:42;;;;;;;7.17;5.70;;;19.10;92.30;;;;;;5060282;28;20196;-58
2022/08/29 03:42:09;;;;;;;8.37;5.50;;;19.10;92.20;;;;;;5057584;28;20189;-58
2022/08/29 03:44:36;;;;;;;6.67;5.13;;;19.10;92.20;;;;;;5073477;28;20299;-58
2022/08/29 03:47:03;;;;;;;8.53;5.77;;;19.10;92.10;;;;;;5093067;28;20184;-58
2022/08/29 03:49:29;;;;;;;10.87;4.93;;;19.10;92.20;;;;;;5094822;28;20272;-58
2022/08/29 03:51:55;;;;;;;5.63;5.13;;;19.10;92.20;;;;;;5078901;28;20299;-58
2022/08/29 03:54:21;;;;;;;5.70;5.10;;;19.10;92.10;;;;;;5061506;28;20180;-58
2022/08/29 03:56:47;;;;;;;8.57;4.80;;;19.10;91.90;;;;;;5093991;28;20184;-58
2022/08/29 03:59:13;;;;;;;9.87;4.63;;;19.10;92.00;;;;;;5076357;28;20185;-58
2022/08/29 04:01:39;;;;;;;5.57;5.03;;;19.00;91.80;;;;;;5094749;28;20184;-58
2022/08/29 04:04:04;;;;;;;7.40;4.80;;;19.00;91.80;;;;;;5060277;28;20196;-58
2022/08/29 04:06:32;;;;;;;5.67;4.60;;;19.00;91.80;;;;;;5059125;28;20251;-58
2022/08/29 04:08:59;;;;;;;5.83;4.40;;;18.90;91.70;;;;;;5068555;28;20188;-58
2022/08/29 04:11:25;;;;;;;6.27;4.73;;;18.90;91.70;;;;;;5094224;28;20204;-58
2022/08/29 04:13:52;;;;;;;5.33;4.83;;;18.80;91.70;;;;;;5094459;28;20184;-58
2022/08/29 04:16:25;;;;;;;10.73;4.40;;;18.80;91.70;;;;;;5077176;28;20249;-56
2022/08/29 04:18:51;;;;;;;6.80;4.77;;;18.80;91.70;;;;;;5093260;28;20215;-57
2022/08/29 04:21:17;;;;;;;5.23;4.73;;;18.80;91.70;;;;;;5073990;28;20189;-57
2022/08/29 04:23:44;;;;;;;7.47;5.17;;;18.80;92.00;;;;;;5072615;28;20188;-57
2022/08/29 04:26:18;;;;;;;6.13;4.60;;;18.80;92.00;;;;;;5057267;28;20254;-57
2022/08/29 04:28:44;;;;;;;5.40;4.20;;;18.80;91.90;;;;;;5086690;28;20188;-58
2022/08/29 04:31:12;;;;;;;8.10;5.10;;;18.80;91.70;;;;;;5099291;28;20211;-57
2022/08/29 04:33:38;;;;;;;4.97;4.47;;;18.80;91.70;;;;;;5097301;28;20189;-58
2022/08/29 04:36:05;;;;;;;7.23;5.13;;;18.70;91.70;;;;;;5077090;28;20225;-60
2022/08/29 04:38:31;;;;;;;6.73;4.90;;;18.70;91.70;;;;;;5074246;28;20184;-61
2022/08/29 04:40:57;;;;;;;6.10;4.30;;;18.70;91.80;;;;;;5079341;28;20593;-61
2022/08/29 04:43:22;;;;;;;5.83;4.30;;;18.80;91.70;;;;;;5082847;28;20189;-61
2022/08/29 04:45:55;;;;;;;6.73;5.13;;;18.80;91.80;;;;;;5077952;28;20212;-60
2022/08/29 04:48:21;;;;;;;5.70;4.53;;;18.70;91.70;;;;;;5093790;28;20188;-61
2022/08/29 04:50:56;;;;;;;5.17;4.67;;;18.70;91.80;;;;;;5113991;28;20201;-61
2022/08/29 04:53:24;;;;;;;6.07;4.57;;;18.70;91.70;;;;;;5105510;28;20172;-61
2022/08/29 04:56:05;;;;;;;8.80;5.10;;;18.70;91.70;;;;;;5098293;28;20185;-61
2022/08/29 04:58:35;;;;;;;5.20;4.33;;;18.70;91.80;;;;;;5099323;28;20177;-61
2022/08/29 05:01:02;;;;;;;5.53;5.03;;;18.80;91.80;;;;;;5088626;28;20191;-61
2022/08/29 05:03:29;;;;;;;6.50;4.60;;;18.70;91.80;;;;;;5117210;28;20203;-60
2022/08/29 05:06:00;;;;;;;5.47;4.53;;;18.70;91.90;;;;;;5081598;28;20195;-61
2022/08/29 05:08:28;;;;;;;8.83;4.30;;;18.70;91.80;;;;;;5097476;28;20279;-60
2022/08/29 05:10:54;;;;;;;4.60;3.77;;;18.70;91.80;;;;;;5100155;28;20214;-60
2022/08/29 05:13:21;;;;;;;5.33;3.60;;;18.70;91.80;;;;;;5071365;28;20216;-60
2022/08/29 05:15:47;;;;;;;6.03;3.90;;;18.70;91.70;;;;;;5116130;28;20211;-61
2022/08/29 05:18:13;;;;;;;4.57;3.67;;;18.70;91.70;;;;;;5082374;28;20267;-60
2022/08/29 05:20:41;;;;;;;4.20;3.47;;;18.70;91.70;;;;;;5079892;28;20188;-60
2022/08/29 05:23:06;;;;;;;9.90;3.50;;;18.70;91.60;;;;;;5081708;28;20195;-60
2022/08/29 05:25:32;;;;;;;6.37;3.87;;;18.70;91.70;;;;;;5089529;28;20186;-60
2022/08/29 05:27:58;;;;;;;8.80;3.87;;;18.70;91.60;;;;;;5077332;28;20245;-60
2022/08/29 05:30:24;;;;;;;3.67;3.37;;;18.60;91.60;;;;;;5079192;28;20220;-60
2022/08/29 05:32:50;;;;;;;7.23;3.90;;;18.60;91.70;;;;;;5094001;28;20203;-60
2022/08/29 05:35:17;;;;;;;4.03;3.63;;;18.60;91.60;;;;;;5079156;28;20188;-60
2022/08/29 05:37:43;;;;;;;5.10;4.00;;;18.70;91.80;;;;;;5063507;28;20222;-59
2022/08/29 05:40:09;;;;;;;5.50;4.40;;;18.70;92.00;;;;;;5081284;28;20224;-59
2022/08/29 05:42:34;;;;;;;3.67;3.33;;;18.70;91.90;;;;;;5046059;28;20350;-60
2022/08/29 05:45:03;;;;;;;3.87;3.47;;;18.70;91.90;;;;;;5068080;28;20203;-61
2022/08/29 05:47:30;;;;;;;4.13;3.73;;;18.70;91.90;;;;;;5078742;28;20261;-60
2022/08/29 05:49:56;;;;;;;4.60;3.47;;;18.70;92.00;;;;;;5095944;28;20200;-60
2022/08/29 05:52:22;;;;;;;4.43;3.40;;;18.70;91.90;;;;;;5041578;28;20205;-61
2022/08/29 05:54:48;;;;;;;7.20;3.73;;;18.80;91.90;;;;;;5062444;28;20190;-61
2022/08/29 05:57:16;;;;;;;5.33;3.50;;;18.80;91.90;;;;;;5077795;28;20197;-61
2022/08/29 05:59:42;;;;;;;5.63;4.10;;;18.80;91.80;;;;;;5089646;28;20191;-61
2022/08/29 06:02:10;;;;;;;4.40;3.97;;;18.80;91.90;;;;;;5066932;28;20189;-60
2022/08/29 06:04:36;;;;;;;5.40;3.73;;;18.80;91.90;;;;;;5093186;28;20192;-61
2022/08/29 06:07:03;;;;;;;4.73;3.93;;;18.80;91.90;;;;;;5098464;28;20209;-60
2022/08/29 06:09:28;;;;;;;5.57;3.37;;;18.80;91.90;;;;;;5058946;28;20206;-60
2022/08/29 06:11:56;;;;;;;5.87;3.60;;;18.80;91.90;;;;;;5059248;28;20266;-59
2022/08/29 06:14:22;;;;;;;6.90;3.37;;;18.80;91.70;;;;;;5061015;28;20219;-60
2022/08/29 06:16:48;;;;;;;4.10;3.70;;;18.80;91.80;;;;;;5076940;28;20185;-60
2022/08/29 06:19:14;;;;;;;4.93;3.50;;;18.80;91.70;;;;;;5083589;28;20216;-59
2022/08/29 06:21:40;;;;;;;3.87;3.30;;;18.80;91.70;;;;;;5074880;28;20217;-60
2022/08/29 06:24:07;;;;;;;4.50;2.83;;;18.80;91.60;;;;;;5079083;28;20184;-60
2022/08/29 06:26:33;;;;;;;3.40;3.10;;;18.80;91.60;;;;;;5059306;28;20271;-60
2022/08/29 06:28:58;;;;;;;3.90;3.50;;;18.80;91.80;;;;;;5079424;28;20189;-60
2022/08/29 06:31:27;;;;;;;5.87;3.40;;;18.80;91.80;;;;;;5043108;28;20231;-61
2022/08/29 06:33:56;;;;;;;4.00;3.43;;;18.80;91.80;;;;;;5084192;28;20193;-61
2022/08/29 06:36:24;;;;;;;6.03;4.00;;;18.80;91.80;;;;;;5064066;28;20201;-61
2022/08/29 06:38:50;;;;;;;7.43;3.77;;;18.90;91.90;;;;;;5075260;28;20213;-62
2022/08/29 06:41:17;;;;;;;4.93;3.60;;;18.90;92.00;;;;;;5057630;28;20189;-62
2022/08/29 06:43:43;;;;;;;5.80;3.90;;;18.90;91.80;;;;;;5079307;28;20176;-62
2022/08/29 06:46:19;;;;;;;6.77;3.73;;;19.00;92.00;;;;;;5060428;28;20236;-62
2022/08/29 06:48:45;;;;;;;4.17;3.60;;;18.90;91.90;;;;;;5073689;28;20184;-62
2022/08/29 06:51:11;;;;;;;4.23;3.73;;;19.00;91.90;;;;;;5055500;28;20302;-62
2022/08/29 06:53:36;;;;;;;5.60;4.10;;;19.00;91.90;;;;;;5052790;28;20246;-62
2022/08/29 06:56:04;;;;;;;4.10;3.70;;;19.10;91.90;;;;;;5059801;28;20190;-62
2022/08/29 06:58:30;;;;;;;5.47;3.57;;;19.10;92.00;;;;;;5071291;28;20267;-62
2022/08/29 07:00:55;;;;;;;5.70;4.00;;;19.10;92.00;;;;;;5056519;28;20228;-61
2022/08/29 07:03:21;;;;;;;6.00;3.53;;;19.10;92.00;;;;;;5044048;28;20182;-61
2022/08/29 07:05:53;;;;;;;4.23;3.83;;;19.10;91.90;;;;;;5060473;28;20225;-61
2022/08/29 07:08:19;;;;;;;6.13;3.23;;;19.10;91.90;;;;;;5039665;28;20301;-60
2022/08/29 07:10:45;;;;;;;5.97;3.20;;;19.10;91.90;;;;;;5079985;28;20291;-59
2022/08/29 07:13:11;;;;;;;5.37;3.70;;;19.20;92.00;;;;;;5044672;28;20186;-60
2022/08/29 07:15:37;;;;;;;3.33;3.03;;;19.20;91.90;;;;;;5032843;28;20185;-60
2022/08/29 07:18:03;;;;;;;5.07;3.80;;;19.20;91.60;;;;;;5061163;28;20188;-61
2022/08/29 07:20:28;;;;;;;4.67;4.27;;;19.20;91.70;;;;;;5072607;28;20220;-61
2022/08/29 07:22:54;;;;;;;5.63;4.57;;;19.30;91.70;;;;;;5043494;28;20186;-61
2022/08/29 07:25:20;;;;;;;5.27;4.70;;;19.30;91.10;;;;;;5051012;28;20188;-61
2022/08/29 07:27:47;;;;;;;5.40;4.70;;;19.40;90.70;;;;;;5091647;28;20232;-61
2022/08/29 07:30:15;;;;;;;5.53;4.07;;;19.40;91.20;;;;;;5090516;28;20181;-62
2022/08/29 07:32:44;;;;;;;5.97;4.63;;;19.40;89.20;;;;;;5097570;28;20253;-61
2022/08/29 07:35:15;;;;;;;5.87;4.70;;;19.50;90.20;;;;;;5096610;28;20202;-62
2022/08/29 07:37:41;;;;;;;5.13;4.63;;;19.50;90.80;;;;;;5097216;28;20192;-61
2022/08/29 07:40:09;;;;;;;7.63;4.80;;;19.50;90.90;;;;;;5080152;28;20192;-61
2022/08/29 07:42:37;;;;;;;5.13;4.73;;;19.60;91.00;;;;;;5079217;28;20208;-61
2022/08/29 07:45:05;;;;;;;4.70;4.03;;;19.60;89.60;;;;;;5095203;28;20192;-61
2022/08/29 07:47:31;;;;;;;4.97;4.53;;;19.70;89.60;;;;;;5073157;28;20337;-61
2022/08/29 07:49:58;;;;;;;6.43;5.00;;;19.70;90.00;;;;;;5066477;28;20199;-61
2022/08/29 07:52:24;;;;;;;5.63;5.13;;;19.70;90.60;;;;;;5061743;28;20269;-61
2022/08/29 07:54:50;;;;;;;4.37;3.93;;;19.70;91.00;;;;;;5076881;28;20223;-60
2022/08/29 07:57:17;;;;;;;5.07;4.10;;;19.70;90.10;;;;;;5095214;28;20199;-61
2022/08/29 07:59:43;;;;;;;4.43;4.00;;;19.70;90.20;;;;;;5093936;28;20196;-61
2022/08/29 08:02:09;;;;;;;6.07;3.37;;;19.80;90.10;;;;;;5061038;28;20191;-61
2022/08/29 08:04:34;;;;;;;5.00;4.00;;;19.80;89.70;;;;;;5077597;28;20188;-61
2022/08/29 08:07:01;;;;;;;4.23;3.93;;;19.90;89.50;;;;;;5095355;28;20184;-61
2022/08/29 08:09:26;;;;;;;5.00;4.50;;;19.90;90.30;;;;;;5056673;28;20193;-61
2022/08/29 08:11:52;;;;;;;4.90;4.40;;;20.00;89.90;;;;;;5071426;28;20265;-61
2022/08/29 08:14:18;;;;;;;4.33;3.93;;;20.00;89.70;;;;;;5088325;28;20189;-61
2022/08/29 08:16:45;;;;;;;4.53;4.13;;;20.10;90.30;;;;;;5088113;28;20226;-60
2022/08/29 08:19:12;;;;;;;4.97;4.47;;;20.00;90.70;;;;;;5078417;28;20181;-60
2022/08/29 08:21:38;;;;;;;5.53;4.67;;;20.10;90.50;;;;;;5095416;28;20207;-58
2022/08/29 08:24:04;;;;;;;5.50;4.27;;;20.20;90.90;;;;;;5092402;28;20192;-59
2022/08/29 08:26:30;;;;;;;4.77;4.37;;;20.20;91.10;;;;;;5077163;28;20240;-60
2022/08/29 08:28:56;;;;;;;4.47;4.10;;;20.20;90.80;;;;;;5106074;28;20258;-59
2022/08/29 08:31:22;;;;;;;4.30;3.90;;;20.30;90.80;;;;;;5073330;28;20345;-59
2022/08/29 08:33:48;;;;;;;4.63;4.23;;;20.30;90.70;;;;;;5056120;28;20257;-59
2022/08/29 08:36:37;;;;;;;5.17;4.67;;;20.30;91.10;;;;;;5078476;28;20227;-60
2022/08/29 08:39:03;;;;;;;4.00;3.70;;;20.40;91.20;;;;;;5080009;28;20180;-60
2022/08/29 08:41:32;;;;;;;4.37;3.97;;;20.50;90.30;;;;;;5040944;28;20200;-59
2022/08/29 08:44:11;;;;;;;4.50;4.10;;;20.60;90.80;;;;;;5082765;28;20195;-60
2022/08/29 08:46:46;;;;;;;5.80;4.27;;;20.60;91.00;;;;;;5075537;28;20245;-60
2022/08/29 08:49:15;;;;;;;4.40;4.00;;;20.70;90.60;;;;;;5061778;28;20192;-60
2022/08/29 08:51:46;;;;;;;4.10;3.70;;;20.80;90.60;;;;;;5105038;28;20215;-60
2022/08/29 08:54:26;;;;;;;4.20;3.73;;;20.80;89.10;;;;;;5091287;28;20277;-60
2022/08/29 08:57:08;;;;;;;3.97;2.93;;;20.80;89.80;;;;;;5071431;28;20189;-60
2022/08/29 08:59:48;;;;;;;4.90;3.70;;;20.80;88.10;;;;;;5081496;28;20227;-60
2022/08/29 09:02:44;;;;;;;3.73;3.43;;;20.80;89.40;;;;;;5095738;28;20209;-60
2022/08/29 09:05:35;;;;;;;3.20;3.00;;;20.80;87.40;;;;;;5070459;28;20197;-59
2022/08/29 09:08:09;;;;;;;5.10;3.57;;;20.90;84.60;;;;;;5061782;28;20208;-61
2022/08/29 09:11:02;;;;;;;3.20;3.00;;;21.10;86.60;;;;;;5093548;28;20247;-60
2022/08/29 09:13:50;;;;;;;4.40;3.50;;;21.00;86.90;;;;;;5096372;28;20176;-61
2022/08/29 09:16:23;;;;;;;4.23;3.83;;;21.00;88.00;;;;;;5068110;28;20185;-61
2022/08/29 09:18:48;;;;;;;3.53;3.23;;;21.20;87.20;;;;;;5074065;28;20181;-62
2022/08/29 09:21:18;;;;;;;4.83;3.30;;;21.20;86.90;;;;;;5061435;28;20190;-61
2022/08/29 09:23:50;;;;;;;3.47;3.17;;;21.30;86.80;;;;;;5083939;28;20192;-62
2022/08/29 09:26:20;;;;;;;4.90;3.57;;;21.40;86.60;;;;;;5074068;28;20181;-61
2022/08/29 09:28:46;;;;;;;3.70;3.40;;;21.40;87.80;;;;;;5076212;28;20181;-61
2022/08/29 09:31:19;;;;;;;4.63;3.43;;;21.50;87.30;;;;;;5055564;28;20229;-61
2022/08/29 09:33:52;;;;;;;3.90;3.60;;;21.50;87.80;;;;;;5070160;28;20192;-62
2022/08/29 09:36:36;;;;;;;3.90;3.60;;;21.60;87.40;;;;;;5072341;28;20190;-61
2022/08/29 09:39:20;;;;;;;4.03;3.57;;;21.60;83.30;;;;;;5076787;28;20193;-63
2022/08/29 09:41:52;;;;;;;3.73;3.23;;;21.70;86.90;;;;;;5095280;28;20263;-61
2022/08/29 09:44:39;;;;;;;4.13;3.63;;;21.70;86.20;;;;;;5068524;28;20242;-60
2022/08/29 09:47:10;;;;;;;4.90;4.40;;;21.70;87.80;;;;;;5081422;28;20200;-61
2022/08/29 09:49:38;;;;;;;4.40;4.07;;;21.60;87.60;;;;;;5080515;28;20189;-60
2022/08/29 09:52:22;;;;;;;4.20;3.90;;;21.60;87.80;;;;;;5076490;28;20213;-61
2022/08/29 09:54:48;;;;;;;4.60;4.20;;;21.60;88.40;;;;;;5075990;28;20199;-61
2022/08/29 09:57:26;;;;;;;4.83;4.37;;;21.60;89.10;;;;;;5075959;28;20189;-60
2022/08/29 10:00:12;;;;;;;5.30;4.80;;;21.70;89.70;;;;;;5077102;28;20188;-60
2022/08/29 10:02:42;;;;;;;5.37;4.60;;;21.80;90.30;;;;;;5090772;28;20238;-61
2022/08/29 10:05:24;;;;;;;4.80;4.40;;;21.80;90.60;;;;;;5068150;28;20189;-60
2022/08/29 10:07:51;;;;;;;5.30;4.70;;;21.80;90.60;;;;;;5075188;28;20272;-59
2022/08/29 10:10:23;;;;;;;5.47;4.97;;;21.90;90.70;;;;;;5075618;28;20189;-60
2022/08/29 10:13:23;;;;;;;4.77;4.13;;;21.90;90.60;;;;;;5088590;28;20201;-61
2022/08/29 10:16:17;;;;;;;5.57;5.10;;;22.00;90.90;;;;;;5034436;28;20189;-60
2022/08/29 10:18:51;;;;;;;5.13;4.63;;;22.00;91.00;;;;;;5076036;28;20193;-63
2022/08/29 10:21:45;;;;;;;4.60;4.20;;;22.00;91.20;;;;;;5084652;28;20185;-61
2022/08/29 10:24:38;;;;;;;5.17;4.77;;;22.10;91.30;;;;;;5089998;28;20205;-62
2022/08/29 10:27:29;;;;;;;5.50;4.40;;;22.10;91.30;;;;;;5069214;28;20245;-61
2022/08/29 10:30:01;;;;;;;4.87;4.37;;;22.00;91.20;;;;;;5071765;28;20193;-61
2022/08/29 10:32:54;;;;;;;5.83;4.30;;;22.10;90.60;;;;;;5087751;28;20209;-61
2022/08/29 10:35:38;;;;;;;4.37;4.00;;;22.10;90.80;;;;;;5078058;28;20193;-62
2022/08/29 10:38:28;;;;;;;4.90;4.40;;;22.00;89.90;;;;;;5085106;28;20192;-61
2022/08/29 10:41:00;;;;;;;5.70;4.50;;;22.00;90.00;;;;;;5094816;28;20196;-62
2022/08/29 10:43:33;;;;;;;6.70;4.53;;;22.00;89.40;;;;;;5075119;28;20260;-61
2022/08/29 10:46:05;;;;;;;5.40;4.87;;;22.00;89.10;;;;;;5083442;28;20210;-61
2022/08/29 10:48:59;;;;;;;4.50;4.10;;;22.00;89.50;;;;;;5075511;28;20189;-62
2022/08/29 10:51:59;;;;;;;4.20;3.90;;;22.10;89.20;;;;;;5073260;28;20201;-62
2022/08/29 10:54:39;;;;;;;5.37;4.10;;;22.10;89.90;;;;;;5054073;28;20300;-62
2022/08/29 10:57:07;;;;;;;3.87;3.57;;;22.00;89.70;;;;;;5068177;28;20185;-62
2022/08/29 10:59:49;;;;;;;6.20;4.27;;;22.00;89.50;;;;;;5058089;28;20196;-61
2022/08/29 11:02:53;;;;;;;4.63;3.77;;;22.00;89.40;;;;;;5072983;28;20210;-62
2022/08/29 11:05:25;;;;;;;5.00;3.43;;;21.90;89.90;;;;;;5073202;28;20184;-61
2022/08/29 11:08:01;;;;;;;5.10;3.50;;;21.80;89.70;;;;;;5074609;28;20196;-62
2022/08/29 11:10:38;;;;;;;13.63;6.67;;;21.80;90.00;;;;;;5074540;28;20195;-60
2022/08/29 11:13:24;;;;;;;18.30;6.73;;;21.70;90.00;;;;;;5074499;28;20227;-62
2022/08/29 11:15:53;;;;;;;19.23;7.30;;;21.50;90.20;;;;;;5062656;28;20201;-62
2022/08/29 11:18:32;;;;;;;17.27;6.77;;;21.40;90.90;;;;;;5074957;28;20247;-62
2022/08/29 11:21:42;;;;;;;17.17;8.30;;;21.10;92.80;;;;;;5063833;28;20192;-62
2022/08/29 11:24:10;;;;;;;27.03;10.20;;;20.90;94.00;;;;;;5074278;28;20192;-62
2022/08/29 11:26:42;;;;;;;14.07;7.53;;;20.80;94.20;;;;;;5075095;28;20236;-62
2022/08/29 11:29:29;;;;;;;17.90;8.97;;;20.80;94.30;;;;;;5073822;28;20280;-62
2022/08/29 11:32:07;;;;;;;17.53;7.63;;;20.80;94.40;;;;;;5093176;28;20209;-62
2022/08/29 11:34:54;;;;;;;13.53;7.97;;;20.80;94.50;;;;;;5075412;28;20177;-61
2022/08/29 11:37:38;;;;;;;10.60;6.57;;;20.80;94.40;;;;;;5075407;28;20185;-64
2022/08/29 11:40:31;;;;;;;11.47;6.53;;;20.70;94.30;;;;;;5063860;28;20181;-61
2022/08/29 11:43:01;;;;;;;7.00;6.30;;;20.70;94.40;;;;;;5075415;28;20189;-62
2022/08/29 11:45:34;;;;;;;7.90;6.07;;;20.70;94.30;;;;;;5093889;28;20187;-62
2022/08/29 11:48:32;;;;;;;15.13;7.20;;;20.70;94.30;;;;;;5072080;28;20198;-63
2022/08/29 11:50:59;;;;;;;8.97;6.40;;;20.60;94.40;;;;;;5074867;28;20205;-60
2022/08/29 11:53:36;;;;;;;13.03;7.23;;;20.60;94.50;;;;;;5075043;28;20230;-62
2022/08/29 11:56:07;;;;;;;12.17;7.33;;;20.60;94.40;;;;;;5076401;28;20181;-62
2022/08/29 11:58:35;;;;;;;13.20;7.90;;;20.60;94.40;;;;;;5070026;28;20181;-62
2022/08/29 12:01:01;;;;;;;8.83;7.27;;;20.60;94.40;;;;;;5065926;28;20224;-62
2022/08/29 12:03:32;;;;;;;18.60;7.30;;;20.60;94.50;;;;;;5051215;28;20216;-65
2022/08/29 12:06:22;;;;;;;19.17;7.20;;;20.60;94.50;;;;;;5076011;28;20195;-64
2022/08/29 12:09:13;;;;;;;11.83;7.53;;;20.70;94.40;;;;;;5075548;28;20208;-65
2022/08/29 12:11:57;;;;;;;9.67;7.40;;;20.70;94.40;;;;;;5072760;28;20197;-64
2022/08/29 12:14:42;;;;;;;9.97;7.60;;;20.70;94.40;;;;;;5081014;28;20240;-69
2022/08/29 12:17:28;;;;;;;11.50;7.87;;;20.80;94.40;;;;;;5075127;28;20205;-66
2022/08/29 12:20:03;;;;;;;16.37;8.70;;;20.80;94.30;;;;;;5056884;28;20193;-66
2022/08/29 12:22:50;;;;;;;14.87;8.53;;;20.90;94.30;;;;;;5070339;28;20192;-65
2022/08/29 12:25:34;;;;;;;16.73;9.33;;;20.90;94.30;;;;;;5074056;28;20230;-65
2022/08/29 12:28:17;;;;;;;12.57;7.60;;;20.90;94.30;;;;;;5080213;28;20229;-66
2022/08/29 12:30:57;;;;;;;15.20;8.57;;;21.00;94.30;;;;;;5070672;28;20191;-66
2022/08/29 12:33:38;;;;;;;9.10;7.47;;;21.00;94.30;;;;;;5069286;28;20192;-66
2022/08/29 12:36:31;;;;;;;10.50;8.33;;;21.10;94.30;;;;;;5075689;28;20177;-66
2022/08/29 12:39:02;;;;;;;10.77;8.03;;;21.20;94.20;;;;;;5075314;28;20188;-65
2022/08/29 12:42:03;;;;;;;10.77;7.07;;;21.20;94.20;;;;;;5084061;28;20185;-64
2022/08/29 12:44:41;;;;;;;8.77;7.27;;;21.20;94.20;;;;;;5081466;28;20252;-65
2022/08/29 12:47:10;;;;;;;8.23;6.90;;;21.30;94.20;;;;;;5094100;28;20205;-66
2022/08/29 12:49:51;;;;;;;9.10;7.70;;;21.30;94.00;;;;;;5095782;28;20182;-65
2022/08/29 12:52:35;;;;;;;11.57;7.07;;;21.40;94.20;;;;;;5078161;28;20251;-66
2022/08/29 12:55:23;;;;;;;6.87;6.17;;;21.50;94.10;;;;;;5095128;28;20191;-63
2022/08/29 12:57:50;;;;;;;10.53;7.23;;;21.60;93.90;;;;;;5070512;28;20173;-66
2022/08/29 13:00:22;;;;;;;6.67;5.67;;;21.70;94.30;;;;;;5081221;28;20243;-68
2022/08/29 13:03:19;;;;;;;7.20;6.47;;;21.80;94.10;;;;;;5077908;28;20177;-68
2022/08/29 13:05:45;;;;;;;10.53;6.33;;;22.00;94.10;;;;;;5059299;28;20189;-69